createdAt,value
2023-02-24T00:04:51.768Z,99472.78
2023-02-24T00:09:53.347Z,99469.75
2023-02-24T00:14:54.754Z,99457.72
2023-02-24T00:19:56.933Z,99444.53
2023-02-24T00:25:02.482Z,99433.50
2023-02-24T00:30:05.945Z,99429.09
2023-02-24T00:35:08.860Z,99427.50
2023-02-24T00:40:11.222Z,99422.97
2023-02-24T00:45:12.695Z,99424.22
2023-02-24T00:50:14.208Z,99414.25
2023-02-24T00:55:15.634Z,99406.88
2023-02-24T01:00:17.718Z,99402.47
2023-02-24T01:05:20.121Z,99400.03
2023-02-24T01:10:23.399Z,99384.63
2023-02-24T01:15:25.012Z,99381.47
2023-02-24T01:20:30.368Z,99385.06
2023-02-24T01:25:31.846Z,99373.06
2023-02-24T01:30:33.915Z,99374.59
2023-02-24T01:35:35.417Z,99371.25
2023-02-24T01:40:37.560Z,99358.78
2023-02-24T01:45:41.818Z,99363.41
2023-02-24T01:50:45.235Z,99350.66
2023-02-24T01:55:50.763Z,99335.81
2023-02-24T02:00:52.485Z,99338.44
2023-02-24T02:05:59.116Z,99333.91
2023-02-24T02:11:06.283Z,99324.00
2023-02-24T02:16:35.853Z,99321.75
2023-02-24T02:22:17.592Z,99318.94
2023-02-24T02:27:49.897Z,99315.25
2023-02-24T02:33:21.552Z,99316.09
2023-02-24T02:38:32.270Z,99311.31
2023-02-24T02:43:49.019Z,99309.03
2023-02-24T02:48:57.384Z,99298.78
2023-02-24T02:54:16.338Z,99280.06
2023-02-24T02:59:22.536Z,99283.44
2023-02-24T03:04:26.558Z,99280.00
2023-02-24T03:09:36.564Z,99276.03
2023-02-24T03:14:43.074Z,99277.31
2023-02-24T03:19:46.941Z,99272.88
2023-02-24T03:24:48.753Z,99262.69
2023-02-24T03:29:55.477Z,99259.53
2023-02-24T03:35:04.278Z,99247.34
2023-02-24T03:40:14.464Z,99259.25
2023-02-24T03:45:17.817Z,99243.13
2023-02-24T03:50:22.038Z,99244.25
2023-02-24T03:55:33.334Z,99239.47
2023-02-24T04:01:00.006Z,99230.88
2023-02-24T04:06:11.834Z,99230.72
2023-02-24T04:11:41.993Z,99221.06
2023-02-24T04:16:51.499Z,99210.28
2023-02-24T04:21:54.922Z,99208.59
2023-02-24T04:27:01.007Z,99209.66
2023-02-24T04:32:07.590Z,99209.00
2023-02-24T04:37:09.283Z,99196.00
2023-02-24T04:42:10.922Z,99192.63
2023-02-24T04:47:12.666Z,99189.25
2023-02-24T04:52:15.894Z,99187.50
2023-02-24T04:57:17.411Z,99181.44
2023-02-24T05:02:20.559Z,99179.28
2023-02-24T05:07:22.513Z,99174.47
2023-02-24T05:12:24.012Z,99163.56
2023-02-24T05:17:25.421Z,99169.19
2023-02-24T05:22:28.962Z,99163.41
2023-02-24T05:27:30.716Z,99156.91
2023-02-24T05:32:34.617Z,99157.81
2023-02-24T05:37:42.094Z,99162.03
2023-02-24T05:42:45.282Z,99162.75
2023-02-24T05:47:47.385Z,99164.91
2023-02-24T05:52:48.814Z,99154.41
2023-02-24T05:57:50.868Z,99157.53
2023-02-24T06:02:52.651Z,99151.63
2023-02-24T06:08:04.681Z,99153.03
2023-02-24T06:13:07.217Z,99155.13
2023-02-24T06:18:11.608Z,99154.09
2023-02-24T06:23:13.068Z,99151.69
2023-02-24T06:28:14.506Z,99152.16
2023-02-24T06:33:16.120Z,99148.31
2023-02-24T06:38:17.551Z,99148.38
2023-02-24T06:43:19.385Z,99159.63
2023-02-24T06:48:22.988Z,99159.34
2023-02-24T06:53:26.625Z,99148.06
2023-02-24T06:58:28.052Z,99157.19
2023-02-24T07:03:47.479Z,99160.00
2023-02-24T07:08:49.061Z,99167.59
2023-02-24T07:13:54.463Z,99164.38
2023-02-24T07:18:57.978Z,99162.38
2023-02-24T07:23:59.687Z,99158.03
2023-02-24T07:29:04.504Z,99149.09
2023-02-24T07:34:06.427Z,99151.47
2023-02-24T07:39:08.134Z,99146.47
2023-02-24T07:44:10.646Z,99141.66
2023-02-24T07:49:19.821Z,99129.94
2023-02-24T07:54:23.265Z,99137.97
2023-02-24T07:59:30.444Z,99143.50
2023-02-24T08:04:33.061Z,99127.59
2023-02-24T08:09:46.943Z,99127.81
2023-02-24T08:14:51.789Z,99112.69
2023-02-24T08:20:13.256Z,99110.78
2023-02-24T08:25:19.166Z,99116.22
2023-02-24T08:30:23.702Z,99110.84
2023-02-24T08:35:35.664Z,99106.50
2023-02-24T08:40:50.022Z,99110.94
2023-02-24T08:45:59.434Z,99098.03
2023-02-24T08:51:02.905Z,99099.47
2023-02-24T08:56:09.588Z,99099.75
2023-02-24T09:01:19.222Z,99083.09
2023-02-24T09:06:28.191Z,99080.22
2023-02-24T09:11:29.620Z,99075.75
2023-02-24T09:16:31.101Z,99079.41
2023-02-24T09:22:10.390Z,99065.72
2023-02-24T09:27:17.267Z,99056.91
2023-02-24T09:32:18.788Z,99058.78
2023-02-24T09:37:26.186Z,99063.78
2023-02-24T09:42:34.928Z,99045.09
2023-02-24T09:47:57.406Z,99049.91
2023-02-24T09:53:13.951Z,99033.00
2023-02-24T09:58:41.844Z,99033.25
2023-02-24T10:03:48.372Z,99029.75
2023-02-24T10:09:03.953Z,99029.34
2023-02-24T10:14:19.426Z,99017.50
2023-02-24T10:19:26.959Z,99023.59
2023-02-24T10:24:41.313Z,99010.25
2023-02-24T10:30:19.589Z,99001.06
2023-02-24T10:35:25.936Z,98991.88
2023-02-24T10:40:45.069Z,98988.84
2023-02-24T10:45:47.812Z,98989.53
2023-02-24T10:50:56.072Z,98974.13
2023-02-24T10:56:22.890Z,98958.72
2023-02-24T11:01:46.234Z,98958.50
2023-02-24T11:06:55.577Z,98948.69
2023-02-24T11:12:17.272Z,98929.34
2023-02-24T11:17:26.938Z,98903.47
2023-02-24T11:22:34.212Z,98899.25
2023-02-24T11:27:35.814Z,98889.88
2023-02-24T11:33:14.592Z,98879.28
2023-02-24T11:38:45.049Z,98863.88
2023-02-24T11:43:57.705Z,98854.66
2023-02-24T11:49:01.595Z,98860.19
2023-02-24T11:54:12.821Z,98852.78
2023-02-24T11:59:32.502Z,98854.06
2023-02-24T12:05:00.672Z,98848.25
2023-02-24T12:10:16.046Z,98838.66
2023-02-24T12:15:32.293Z,98821.97
2023-02-24T12:20:40.500Z,98816.41
2023-02-24T12:25:59.703Z,98810.34
2023-02-24T12:31:01.242Z,98805.78
2023-02-24T12:36:20.098Z,98797.00
2023-02-24T12:41:46.338Z,98780.53
2023-02-24T12:46:58.262Z,98769.63
2023-02-24T12:52:19.347Z,98755.91
2023-02-24T12:57:48.284Z,98740.28
2023-02-24T13:03:10.072Z,98743.66
2023-02-24T13:08:29.558Z,98737.75
2023-02-24T13:13:40.463Z,98721.03
2023-02-24T13:18:42.035Z,98713.38
2023-02-24T13:23:56.146Z,98705.50
2023-02-24T13:29:02.982Z,98702.16
2023-02-24T13:34:15.020Z,98689.44
2023-02-24T13:39:31.385Z,98678.75
2023-02-24T13:44:33.601Z,98681.50
2023-02-24T13:50:06.511Z,98663.41
2023-02-24T13:55:07.945Z,98652.13
2023-02-24T14:00:12.701Z,98643.66
2023-02-24T14:05:25.768Z,98644.63
2023-02-24T14:10:34.636Z,98629.59
2023-02-24T14:15:36.201Z,98637.97
2023-02-24T14:20:39.615Z,98638.03
2023-02-24T14:25:41.232Z,98630.50
2023-02-24T14:30:42.886Z,98629.38
2023-02-24T14:35:47.390Z,98617.81
2023-02-24T14:40:48.931Z,98628.22
2023-02-24T14:45:52.731Z,98627.56
2023-02-24T14:51:01.904Z,98613.63
2023-02-24T14:56:06.139Z,98611.47
2023-02-24T15:01:22.716Z,98594.53
2023-02-24T15:06:29.651Z,98587.22
2023-02-24T15:11:33.019Z,98576.50
2023-02-24T15:16:40.275Z,98564.28
2023-02-24T15:21:42.943Z,98566.78
2023-02-24T15:27:01.969Z,98569.53
2023-02-24T15:32:07.223Z,98571.63
2023-02-24T15:37:24.920Z,98560.06
2023-02-24T15:42:33.913Z,98555.91
2023-02-24T15:47:44.477Z,98539.31
2023-02-24T15:52:46.311Z,98535.66
2023-02-24T15:57:57.017Z,98536.34
2023-02-24T16:02:58.597Z,98522.38
2023-02-24T16:08:00.039Z,98513.31
2023-02-24T16:13:02.106Z,98502.84
2023-02-24T16:18:04.241Z,98505.84
2023-02-24T16:23:05.729Z,98489.75
2023-02-24T16:28:08.352Z,98499.38
2023-02-24T16:33:13.975Z,98495.97
2023-02-24T16:38:18.158Z,98483.78
2023-02-24T16:43:19.633Z,98483.06
2023-02-24T16:48:26.651Z,98476.38
2023-02-24T16:53:28.092Z,98493.31
2023-02-24T16:58:29.552Z,98494.81
2023-02-24T17:03:51.748Z,98502.63
2023-02-24T17:08:53.234Z,98482.13
2023-02-24T17:13:54.900Z,98491.19
2023-02-24T17:18:56.320Z,98490.22
2023-02-24T17:23:57.771Z,98480.22
2023-02-24T17:28:59.257Z,98476.28
2023-02-24T17:34:01.949Z,98457.59
2023-02-24T17:39:03.548Z,98465.53
2023-02-24T17:44:04.984Z,98461.28
2023-02-24T17:49:06.483Z,98445.47
2023-02-24T17:54:08.397Z,98446.34
2023-02-24T17:59:09.998Z,98428.25
2023-02-24T18:04:14.701Z,98431.09
2023-02-24T18:09:16.141Z,98420.78
2023-02-24T18:14:17.664Z,98409.63
2023-02-24T18:19:19.208Z,98410.19
2023-02-24T18:24:22.738Z,98396.91
2023-02-24T18:29:24.170Z,98392.09
2023-02-24T18:34:25.623Z,98383.94
2023-02-24T18:39:28.259Z,98374.19
2023-02-24T18:44:29.710Z,98377.44
2023-02-24T18:49:31.123Z,98388.59
2023-02-24T18:54:34.042Z,98368.69
2023-02-24T18:59:35.484Z,98376.44
2023-02-24T19:04:36.901Z,98371.94
2023-02-24T19:09:41.560Z,98365.72
2023-02-24T19:14:44.549Z,98363.00
2023-02-24T19:19:46.677Z,98344.81
2023-02-24T19:24:48.104Z,98338.88
2023-02-24T19:29:49.629Z,98326.03
2023-02-24T19:34:51.051Z,98323.25
2023-02-24T19:39:52.591Z,98309.84
2023-02-24T19:44:54.087Z,98304.88
2023-02-24T19:49:55.569Z,98305.31
2023-02-24T19:54:57.998Z,98292.47
2023-02-24T19:59:59.468Z,98293.59
2023-02-24T20:05:01.011Z,98290.78
2023-02-24T20:10:02.525Z,98279.47
2023-02-24T20:15:05.346Z,98265.34
2023-02-24T20:20:07.403Z,98264.53
2023-02-24T20:25:09.224Z,98258.88
2023-02-24T20:30:11.432Z,98260.84
2023-02-24T20:35:12.895Z,98254.22
2023-02-24T20:40:14.487Z,98237.75
2023-02-24T20:45:16.335Z,98236.91
2023-02-24T20:50:18.110Z,98241.69
2023-02-24T20:55:19.642Z,98236.63
2023-02-24T21:00:21.204Z,98228.09
2023-02-24T21:05:28.160Z,98227.28
2023-02-24T21:10:29.602Z,98214.31
2023-02-24T21:15:31.094Z,98219.09
2023-02-24T21:20:32.637Z,98202.63
2023-02-24T21:25:34.053Z,98181.88
2023-02-24T21:30:35.556Z,98169.72
2023-02-24T21:35:36.996Z,98171.72
2023-02-24T21:40:38.519Z,98177.78
2023-02-24T21:45:39.993Z,98166.78
2023-02-24T21:50:41.441Z,98166.03
2023-02-24T21:55:43.109Z,98160.59
2023-02-24T22:00:44.524Z,98157.63
2023-02-24T22:05:49.981Z,98153.78
2023-02-24T22:11:01.116Z,98148.88
2023-02-24T22:16:05.886Z,98159.06
2023-02-24T22:21:12.743Z,98142.56
2023-02-24T22:26:15.603Z,98149.72
2023-02-24T22:31:20.205Z,98146.03
2023-02-24T22:36:28.424Z,98150.47
2023-02-24T22:41:32.374Z,98151.13
2023-02-24T22:46:36.663Z,98149.00
2023-02-24T22:51:38.172Z,98147.38
2023-02-24T22:56:39.613Z,98143.00
2023-02-24T23:01:42.678Z,98142.44
2023-02-24T23:06:44.617Z,98142.06
2023-02-24T23:11:46.821Z,98143.47
2023-02-24T23:16:54.642Z,98135.09
2023-02-24T23:21:57.071Z,98145.75
2023-02-24T23:26:58.587Z,98144.50
2023-02-24T23:32:00.275Z,98137.25
2023-02-24T23:37:01.806Z,98119.28
2023-02-24T23:42:03.347Z,98120.75
2023-02-24T23:47:05.059Z,98114.44
2023-02-24T23:52:06.559Z,98107.19
2023-02-24T23:57:07.991Z,98100.88
